sensor_id;sensor_type;location;lat;lon;timestamp;temperature;humidity
35962;DHT22;22044;48.298;10.008;2023-04-30T00:02:18;10.90;99.90
35962;DHT22;22044;48.298;10.008;2023-04-30T00:05:05;10.90;99.90
35962;DHT22;22044;48.298;10.008;2023-04-30T00:07:50;10.80;99.90
35962;DHT22;22044;48.298;10.008;2023-04-30T00:10:36;10.80;99.90
35962;DHT22;22044;48.298;10.008;2023-04-30T00:13:21;10.80;99.90
35962;DHT22;22044;48.298;10.008;2023-04-30T00:16:08;10.80;99.90
35962;DHT22;22044;48.298;10.008;2023-04-30T00:18:54;10.80;99.90
35962;DHT22;22044;48.298;10.008;2023-04-30T00:21:39;10.80;99.90
35962;DHT22;22044;48.298;10.008;2023-04-30T00:24:25;10.80;99.90
35962;DHT22;22044;48.298;10.008;2023-04-30T00:27:11;10.70;99.90
35962;DHT22;22044;48.298;10.008;2023-04-30T00:29:57;10.60;99.90
35962;DHT22;22044;48.298;10.008;2023-04-30T00:32:45;10.60;99.90
35962;DHT22;22044;48.298;10.008;2023-04-30T00:35:31;10.60;99.90
35962;DHT22;22044;48.298;10.008;2023-04-30T00:38:16;10.60;99.90
35962;DHT22;22044;48.298;10.008;2023-04-30T00:41:02;10.60;99.90
35962;DHT22;22044;48.298;10.008;2023-04-30T00:43:48;10.60;99.90
35962;DHT22;22044;48.298;10.008;2023-04-30T00:46:34;10.50;99.90
35962;DHT22;22044;48.298;10.008;2023-04-30T00:49:21;10.40;99.90
35962;DHT22;22044;48.298;10.008;2023-04-30T00:52:06;10.40;99.90
35962;DHT22;22044;48.298;10.008;2023-04-30T00:54:52;10.40;99.90
35962;DHT22;22044;48.298;10.008;2023-04-30T00:57:38;10.30;99.90
35962;DHT22;22044;48.298;10.008;2023-04-30T01:00:24;10.30;99.90
35962;DHT22;22044;48.298;10.008;2023-04-30T01:03:11;10.40;99.90
35962;DHT22;22044;48.298;10.008;2023-04-30T01:05:59;10.50;99.90
35962;DHT22;22044;48.298;10.008;2023-04-30T01:08:44;10.40;99.90
35962;DHT22;22044;48.298;10.008;2023-04-30T01:11:38;10.40;99.90
35962;DHT22;22044;48.298;10.008;2023-04-30T01:14:30;10.40;99.90
35962;DHT22;22044;48.298;10.008;2023-04-30T01:17:25;10.30;99.90
35962;DHT22;22044;48.298;10.008;2023-04-30T01:20:12;10.30;99.90
35962;DHT22;22044;48.298;10.008;2023-04-30T01:23:09;10.20;99.90
35962;DHT22;22044;48.298;10.008;2023-04-30T01:26:10;10.10;99.90
35962;DHT22;22044;48.298;10.008;2023-04-30T01:28:58;10.10;99.90
35962;DHT22;22044;48.298;10.008;2023-04-30T01:31:44;10.20;99.90
35962;DHT22;22044;48.298;10.008;2023-04-30T01:34:32;10.20;99.90
35962;DHT22;22044;48.298;10.008;2023-04-30T01:37:23;10.20;99.90
35962;DHT22;22044;48.298;10.008;2023-04-30T01:40:22;10.20;99.90
35962;DHT22;22044;48.298;10.008;2023-04-30T01:43:14;10.20;99.90
35962;DHT22;22044;48.298;10.008;2023-04-30T01:46:10;10.10;99.90
35962;DHT22;22044;48.298;10.008;2023-04-30T01:49:04;10.10;99.90
35962;DHT22;22044;48.298;10.008;2023-04-30T01:52:01;10.10;99.90
35962;DHT22;22044;48.298;10.008;2023-04-30T01:54:51;10.10;99.90
35962;DHT22;22044;48.298;10.008;2023-04-30T01:57:43;10.00;99.90
35962;DHT22;22044;48.298;10.008;2023-04-30T02:00:31;9.90;99.90
35962;DHT22;22044;48.298;10.008;2023-04-30T02:03:19;9.90;99.90
35962;DHT22;22044;48.298;10.008;2023-04-30T02:06:05;9.80;99.90
35962;DHT22;22044;48.298;10.008;2023-04-30T02:08:50;9.80;99.90
35962;DHT22;22044;48.298;10.008;2023-04-30T02:11:36;9.80;99.90
35962;DHT22;22044;48.298;10.008;2023-04-30T02:14:21;9.90;99.90
35962;DHT22;22044;48.298;10.008;2023-04-30T02:17:10;9.80;99.90
35962;DHT22;22044;48.298;10.008;2023-04-30T02:19:57;9.70;99.90
35962;DHT22;22044;48.298;10.008;2023-04-30T02:22:43;9.70;99.90
35962;DHT22;22044;48.298;10.008;2023-04-30T02:25:28;9.70;99.90
35962;DHT22;22044;48.298;10.008;2023-04-30T02:28:14;9.70;99.90
35962;DHT22;22044;48.298;10.008;2023-04-30T02:31:00;9.60;99.90
35962;DHT22;22044;48.298;10.008;2023-04-30T02:33:46;9.60;99.90
35962;DHT22;22044;48.298;10.008;2023-04-30T02:36:33;9.60;99.90
35962;DHT22;22044;48.298;10.008;2023-04-30T02:39:19;9.60;99.90
35962;DHT22;22044;48.298;10.008;2023-04-30T02:42:05;9.70;99.90
35962;DHT22;22044;48.298;10.008;2023-04-30T02:44:51;9.60;99.90
35962;DHT22;22044;48.298;10.008;2023-04-30T02:47:37;9.50;99.90
35962;DHT22;22044;48.298;10.008;2023-04-30T02:50:22;9.40;99.90
35962;DHT22;22044;48.298;10.008;2023-04-30T02:53:10;9.40;99.90
35962;DHT22;22044;48.298;10.008;2023-04-30T02:55:56;9.30;99.90
35962;DHT22;22044;48.298;10.008;2023-04-30T02:58:42;9.30;99.90
35962;DHT22;22044;48.298;10.008;2023-04-30T03:01:28;9.30;99.90
35962;DHT22;22044;48.298;10.008;2023-04-30T03:04:13;9.30;99.90
35962;DHT22;22044;48.298;10.008;2023-04-30T03:07:00;9.30;99.90
35962;DHT22;22044;48.298;10.008;2023-04-30T03:09:48;9.30;99.90
35962;DHT22;22044;48.298;10.008;2023-04-30T03:12:33;9.30;99.90
35962;DHT22;22044;48.298;10.008;2023-04-30T03:15:19;9.30;99.90
35962;DHT22;22044;48.298;10.008;2023-04-30T03:18:04;9.30;99.90
35962;DHT22;22044;48.298;10.008;2023-04-30T03:20:50;9.30;99.90
35962;DHT22;22044;48.298;10.008;2023-04-30T03:23:35;9.30;99.90
35962;DHT22;22044;48.298;10.008;2023-04-30T03:26:22;9.20;99.90
35962;DHT22;22044;48.298;10.008;2023-04-30T03:29:08;9.10;99.90
35962;DHT22;22044;48.298;10.008;2023-04-30T03:31:54;9.20;99.90
35962;DHT22;22044;48.298;10.008;2023-04-30T03:34:40;9.20;99.90
35962;DHT22;22044;48.298;10.008;2023-04-30T03:37:25;9.20;99.90
35962;DHT22;22044;48.298;10.008;2023-04-30T03:40:11;9.20;99.90
35962;DHT22;22044;48.298;10.008;2023-04-30T03:42:59;9.30;99.90
35962;DHT22;22044;48.298;10.008;2023-04-30T03:45:44;9.20;99.90
35962;DHT22;22044;48.298;10.008;2023-04-30T03:48:30;9.20;99.90
35962;DHT22;22044;48.298;10.008;2023-04-30T03:51:16;9.10;99.90
35962;DHT22;22044;48.298;10.008;2023-04-30T03:54:01;9.10;99.90
35962;DHT22;22044;48.298;10.008;2023-04-30T03:56:47;9.10;99.90
35962;DHT22;22044;48.298;10.008;2023-04-30T03:59:34;9.10;99.90
35962;DHT22;22044;48.298;10.008;2023-04-30T04:02:20;9.10;99.90
35962;DHT22;22044;48.298;10.008;2023-04-30T04:05:06;9.20;99.90
35962;DHT22;22044;48.298;10.008;2023-04-30T04:07:52;9.10;99.90
35962;DHT22;22044;48.298;10.008;2023-04-30T04:10:38;9.10;99.90
35962;DHT22;22044;48.298;10.008;2023-04-30T04:13:26;9.10;99.90
35962;DHT22;22044;48.298;10.008;2023-04-30T04:16:13;9.10;99.90
35962;DHT22;22044;48.298;10.008;2023-04-30T04:18:59;9.00;99.90
35962;DHT22;22044;48.298;10.008;2023-04-30T04:21:44;9.10;99.90
35962;DHT22;22044;48.298;10.008;2023-04-30T04:24:33;9.10;99.90
35962;DHT22;22044;48.298;10.008;2023-04-30T04:27:19;8.90;99.90
35962;DHT22;22044;48.298;10.008;2023-04-30T04:30:06;9.00;99.90
35962;DHT22;22044;48.298;10.008;2023-04-30T04:32:53;8.90;99.90
35962;DHT22;22044;48.298;10.008;2023-04-30T04:35:38;9.00;99.90
35962;DHT22;22044;48.298;10.008;2023-04-30T04:38:24;9.00;99.90
35962;DHT22;22044;48.298;10.008;2023-04-30T04:41:10;9.00;99.90
35962;DHT22;22044;48.298;10.008;2023-04-30T04:43:56;9.10;99.90
35962;DHT22;22044;48.298;10.008;2023-04-30T04:46:41;9.00;99.90
35962;DHT22;22044;48.298;10.008;2023-04-30T04:49:29;9.00;99.90
35962;DHT22;22044;48.298;10.008;2023-04-30T04:52:15;9.00;99.90
35962;DHT22;22044;48.298;10.008;2023-04-30T04:55:00;9.10;99.90
35962;DHT22;22044;48.298;10.008;2023-04-30T04:57:46;9.10;99.90
35962;DHT22;22044;48.298;10.008;2023-04-30T05:00:32;9.00;99.90
35962;DHT22;22044;48.298;10.008;2023-04-30T05:03:17;9.10;99.90
35962;DHT22;22044;48.298;10.008;2023-04-30T05:06:05;9.00;99.90
35962;DHT22;22044;48.298;10.008;2023-04-30T05:08:51;9.10;99.90
35962;DHT22;22044;48.298;10.008;2023-04-30T05:11:36;9.10;99.90
35962;DHT22;22044;48.298;10.008;2023-04-30T05:14:23;9.10;99.90
35962;DHT22;22044;48.298;10.008;2023-04-30T05:17:08;9.10;99.90
35962;DHT22;22044;48.298;10.008;2023-04-30T05:19:54;9.20;99.90
35962;DHT22;22044;48.298;10.008;2023-04-30T05:22:41;9.10;99.90
35962;DHT22;22044;48.298;10.008;2023-04-30T05:25:26;9.20;99.90
35962;DHT22;22044;48.298;10.008;2023-04-30T05:28:12;9.20;99.90
35962;DHT22;22044;48.298;10.008;2023-04-30T05:30:58;9.20;99.90
35962;DHT22;22044;48.298;10.008;2023-04-30T05:33:44;9.10;99.90
35962;DHT22;22044;48.298;10.008;2023-04-30T05:36:29;9.10;99.90
35962;DHT22;22044;48.298;10.008;2023-04-30T05:39:16;9.20;99.90
35962;DHT22;22044;48.298;10.008;2023-04-30T05:42:03;9.20;99.90
35962;DHT22;22044;48.298;10.008;2023-04-30T05:44:49;9.20;99.90
35962;DHT22;22044;48.298;10.008;2023-04-30T05:47:34;9.10;99.90
35962;DHT22;22044;48.298;10.008;2023-04-30T05:50:20;9.10;99.90
35962;DHT22;22044;48.298;10.008;2023-04-30T05:53:06;9.20;99.90
35962;DHT22;22044;48.298;10.008;2023-04-30T05:55:53;9.20;99.90
35962;DHT22;22044;48.298;10.008;2023-04-30T05:58:38;9.20;99.90
35962;DHT22;22044;48.298;10.008;2023-04-30T06:01:25;9.20;99.90
35962;DHT22;22044;48.298;10.008;2023-04-30T06:04:11;9.30;99.90
35962;DHT22;22044;48.298;10.008;2023-04-30T06:06:57;9.30;99.90
35962;DHT22;22044;48.298;10.008;2023-04-30T06:09:44;9.40;99.90
35962;DHT22;22044;48.298;10.008;2023-04-30T06:12:31;9.40;99.90
35962;DHT22;22044;48.298;10.008;2023-04-30T06:15:17;9.40;99.90
35962;DHT22;22044;48.298;10.008;2023-04-30T06:18:02;9.50;99.90
35962;DHT22;22044;48.298;10.008;2023-04-30T06:20:48;9.50;99.90
35962;DHT22;22044;48.298;10.008;2023-04-30T06:23:33;9.40;99.90
35962;DHT22;22044;48.298;10.008;2023-04-30T06:26:19;9.50;99.90
35962;DHT22;22044;48.298;10.008;2023-04-30T06:29:06;9.50;99.90
35962;DHT22;22044;48.298;10.008;2023-04-30T06:31:51;9.70;99.90
35962;DHT22;22044;48.298;10.008;2023-04-30T06:34:37;9.70;99.90
35962;DHT22;22044;48.298;10.008;2023-04-30T06:37:23;9.80;99.90
35962;DHT22;22044;48.298;10.008;2023-04-30T06:40:09;9.70;99.90
35962;DHT22;22044;48.298;10.008;2023-04-30T06:42:55;9.70;99.90
35962;DHT22;22044;48.298;10.008;2023-04-30T06:45:42;9.80;99.90
35962;DHT22;22044;48.298;10.008;2023-04-30T06:48:27;9.80;99.90
35962;DHT22;22044;48.298;10.008;2023-04-30T06:51:13;10.00;99.90
35962;DHT22;22044;48.298;10.008;2023-04-30T06:53:58;9.90;99.90
35962;DHT22;22044;48.298;10.008;2023-04-30T06:56:44;10.00;99.90
35962;DHT22;22044;48.298;10.008;2023-04-30T06:59:29;10.00;99.90
35962;DHT22;22044;48.298;10.008;2023-04-30T07:02:17;10.00;99.90
35962;DHT22;22044;48.298;10.008;2023-04-30T07:05:03;10.10;99.90
35962;DHT22;22044;48.298;10.008;2023-04-30T07:07:48;10.20;99.90
35962;DHT22;22044;48.298;10.008;2023-04-30T07:10:34;10.40;99.90
35962;DHT22;22044;48.298;10.008;2023-04-30T07:13:19;10.30;99.90
35962;DHT22;22044;48.298;10.008;2023-04-30T07:16:06;10.50;99.90
35962;DHT22;22044;48.298;10.008;2023-04-30T07:18:54;10.50;99.90
35962;DHT22;22044;48.298;10.008;2023-04-30T07:21:39;10.40;99.90
35962;DHT22;22044;48.298;10.008;2023-04-30T07:24:25;10.40;99.90
35962;DHT22;22044;48.298;10.008;2023-04-30T07:27:11;10.50;99.90
35962;DHT22;22044;48.298;10.008;2023-04-30T07:29:56;10.70;99.90
35962;DHT22;22044;48.298;10.008;2023-04-30T07:32:42;10.90;99.90
35962;DHT22;22044;48.298;10.008;2023-04-30T07:35:29;10.90;99.90
35962;DHT22;22044;48.298;10.008;2023-04-30T07:38:15;11.00;99.90
35962;DHT22;22044;48.298;10.008;2023-04-30T07:41:02;11.00;99.90
35962;DHT22;22044;48.298;10.008;2023-04-30T07:43:48;11.20;99.90
35962;DHT22;22044;48.298;10.008;2023-04-30T07:46:33;11.10;99.90
35962;DHT22;22044;48.298;10.008;2023-04-30T07:49:19;11.30;99.90
35962;DHT22;22044;48.298;10.008;2023-04-30T07:52:06;11.40;99.90
35962;DHT22;22044;48.298;10.008;2023-04-30T07:54:54;11.40;99.90
35962;DHT22;22044;48.298;10.008;2023-04-30T07:57:39;11.50;99.90
35962;DHT22;22044;48.298;10.008;2023-04-30T08:00:25;11.70;99.90
35962;DHT22;22044;48.298;10.008;2023-04-30T08:03:12;11.80;99.90
35962;DHT22;22044;48.298;10.008;2023-04-30T08:05:58;11.70;99.90
35962;DHT22;22044;48.298;10.008;2023-04-30T08:08:45;11.90;99.90
35962;DHT22;22044;48.298;10.008;2023-04-30T08:11:30;12.10;99.90
35962;DHT22;22044;48.298;10.008;2023-04-30T08:14:16;12.30;99.90
35962;DHT22;22044;48.298;10.008;2023-04-30T08:17:01;12.10;99.90
35962;DHT22;22044;48.298;10.008;2023-04-30T08:19:47;12.40;99.90
35962;DHT22;22044;48.298;10.008;2023-04-30T08:22:33;12.50;99.90
35962;DHT22;22044;48.298;10.008;2023-04-30T08:25:19;12.60;99.90
35962;DHT22;22044;48.298;10.008;2023-04-30T08:28:05;12.90;99.90
35962;DHT22;22044;48.298;10.008;2023-04-30T08:30:50;12.70;99.90
35962;DHT22;22044;48.298;10.008;2023-04-30T08:33:36;12.80;99.90
35962;DHT22;22044;48.298;10.008;2023-04-30T08:36:22;12.90;99.90
35962;DHT22;22044;48.298;10.008;2023-04-30T08:39:07;13.00;99.90
35962;DHT22;22044;48.298;10.008;2023-04-30T08:41:55;13.00;99.90
35962;DHT22;22044;48.298;10.008;2023-04-30T08:44:42;12.90;99.90
35962;DHT22;22044;48.298;10.008;2023-04-30T08:47:30;13.30;99.90
35962;DHT22;22044;48.298;10.008;2023-04-30T08:50:15;13.70;99.90
35962;DHT22;22044;48.298;10.008;2023-04-30T08:53:01;13.90;99.90
35962;DHT22;22044;48.298;10.008;2023-04-30T08:55:47;13.70;99.90
35962;DHT22;22044;48.298;10.008;2023-04-30T08:58:34;13.30;99.90
35962;DHT22;22044;48.298;10.008;2023-04-30T09:01:21;12.90;99.90
35962;DHT22;22044;48.298;10.008;2023-04-30T09:04:07;12.80;99.90
35962;DHT22;22044;48.298;10.008;2023-04-30T09:06:53;12.90;99.90
35962;DHT22;22044;48.298;10.008;2023-04-30T09:09:42;12.90;99.90
35962;DHT22;22044;48.298;10.008;2023-04-30T09:12:27;12.90;99.90
35962;DHT22;22044;48.298;10.008;2023-04-30T09:15:15;13.00;99.90
35962;DHT22;22044;48.298;10.008;2023-04-30T09:18:09;13.10;99.90
35962;DHT22;22044;48.298;10.008;2023-04-30T09:20:57;13.10;99.90
35962;DHT22;22044;48.298;10.008;2023-04-30T09:23:56;13.00;99.90
35962;DHT22;22044;48.298;10.008;2023-04-30T09:26:43;13.10;99.90
35962;DHT22;22044;48.298;10.008;2023-04-30T09:29:35;13.20;99.90
35962;DHT22;22044;48.298;10.008;2023-04-30T09:32:22;13.20;99.90
35962;DHT22;22044;48.298;10.008;2023-04-30T09:35:27;13.20;99.90
35962;DHT22;22044;48.298;10.008;2023-04-30T09:38:27;13.10;99.90
35962;DHT22;22044;48.298;10.008;2023-04-30T09:41:24;13.30;99.90
35962;DHT22;22044;48.298;10.008;2023-04-30T09:44:26;13.70;99.90
35962;DHT22;22044;48.298;10.008;2023-04-30T09:47:14;13.80;99.90
35962;DHT22;22044;48.298;10.008;2023-04-30T09:50:00;13.90;99.90
35962;DHT22;22044;48.298;10.008;2023-04-30T09:52:50;13.70;99.90
35962;DHT22;22044;48.298;10.008;2023-04-30T09:55:37;13.60;99.90
35962;DHT22;22044;48.298;10.008;2023-04-30T09:58:25;13.40;99.90
35962;DHT22;22044;48.298;10.008;2023-04-30T10:01:12;13.30;99.90
35962;DHT22;22044;48.298;10.008;2023-04-30T10:03:57;13.60;99.90
35962;DHT22;22044;48.298;10.008;2023-04-30T10:06:45;13.30;99.90
35962;DHT22;22044;48.298;10.008;2023-04-30T10:09:35;13.50;99.90
35962;DHT22;22044;48.298;10.008;2023-04-30T10:12:24;13.70;99.90
35962;DHT22;22044;48.298;10.008;2023-04-30T10:15:15;14.10;99.90
35962;DHT22;22044;48.298;10.008;2023-04-30T10:18:05;13.80;99.90
35962;DHT22;22044;48.298;10.008;2023-04-30T10:20:53;13.60;99.90
35962;DHT22;22044;48.298;10.008;2023-04-30T10:23:41;13.60;99.90
35962;DHT22;22044;48.298;10.008;2023-04-30T10:26:27;13.70;99.90
35962;DHT22;22044;48.298;10.008;2023-04-30T10:29:16;13.70;99.90
35962;DHT22;22044;48.298;10.008;2023-04-30T10:32:02;13.80;99.90
35962;DHT22;22044;48.298;10.008;2023-04-30T10:34:53;13.90;99.90
35962;DHT22;22044;48.298;10.008;2023-04-30T10:37:45;13.90;99.90
35962;DHT22;22044;48.298;10.008;2023-04-30T10:40:36;13.90;99.90
35962;DHT22;22044;48.298;10.008;2023-04-30T10:43:23;13.80;99.90
35962;DHT22;22044;48.298;10.008;2023-04-30T10:46:08;13.80;99.90
35962;DHT22;22044;48.298;10.008;2023-04-30T10:48:54;13.80;99.90
35962;DHT22;22044;48.298;10.008;2023-04-30T10:51:47;13.90;99.90
35962;DHT22;22044;48.298;10.008;2023-04-30T10:54:36;13.80;99.90
35962;DHT22;22044;48.298;10.008;2023-04-30T10:57:22;13.80;99.90
35962;DHT22;22044;48.298;10.008;2023-04-30T11:00:18;13.90;99.90
35962;DHT22;22044;48.298;10.008;2023-04-30T11:03:05;14.10;99.90
35962;DHT22;22044;48.298;10.008;2023-04-30T11:05:51;14.00;99.90
35962;DHT22;22044;48.298;10.008;2023-04-30T11:08:41;14.10;99.90
35962;DHT22;22044;48.298;10.008;2023-04-30T11:11:32;13.90;99.90
35962;DHT22;22044;48.298;10.008;2023-04-30T11:14:21;13.80;99.90
35962;DHT22;22044;48.298;10.008;2023-04-30T11:17:08;13.90;99.90
35962;DHT22;22044;48.298;10.008;2023-04-30T11:19:59;13.80;99.90
35962;DHT22;22044;48.298;10.008;2023-04-30T11:22:44;13.80;99.90
35962;DHT22;22044;48.298;10.008;2023-04-30T11:25:38;13.80;99.90
35962;DHT22;22044;48.298;10.008;2023-04-30T11:28:25;13.70;99.90
35962;DHT22;22044;48.298;10.008;2023-04-30T11:31:12;13.80;99.90
35962;DHT22;22044;48.298;10.008;2023-04-30T11:33:58;13.80;99.90
35962;DHT22;22044;48.298;10.008;2023-04-30T11:36:45;13.90;99.90
35962;DHT22;22044;48.298;10.008;2023-04-30T11:39:34;14.00;99.90
35962;DHT22;22044;48.298;10.008;2023-04-30T11:42:21;14.20;99.90
35962;DHT22;22044;48.298;10.008;2023-04-30T11:45:10;14.30;99.90
35962;DHT22;22044;48.298;10.008;2023-04-30T11:47:58;14.30;99.90
35962;DHT22;22044;48.298;10.008;2023-04-30T11:50:43;14.00;99.90
35962;DHT22;22044;48.298;10.008;2023-04-30T11:53:29;14.10;99.90
35962;DHT22;22044;48.298;10.008;2023-04-30T11:56:17;13.90;99.90
35962;DHT22;22044;48.298;10.008;2023-04-30T11:59:09;13.70;99.90
35962;DHT22;22044;48.298;10.008;2023-04-30T12:01:55;13.70;99.90
35962;DHT22;22044;48.298;10.008;2023-04-30T12:04:43;13.80;99.90
35962;DHT22;22044;48.298;10.008;2023-04-30T12:07:31;14.10;99.90
35962;DHT22;22044;48.298;10.008;2023-04-30T12:10:18;14.30;99.90
35962;DHT22;22044;48.298;10.008;2023-04-30T12:13:04;14.50;99.90
35962;DHT22;22044;48.298;10.008;2023-04-30T12:15:59;14.50;99.90
35962;DHT22;22044;48.298;10.008;2023-04-30T12:18:46;14.90;99.90
35962;DHT22;22044;48.298;10.008;2023-04-30T12:21:33;14.90;99.90
35962;DHT22;22044;48.298;10.008;2023-04-30T12:24:19;15.20;99.90
35962;DHT22;22044;48.298;10.008;2023-04-30T12:27:07;15.20;99.90
35962;DHT22;22044;48.298;10.008;2023-04-30T12:29:52;15.00;99.90
35962;DHT22;22044;48.298;10.008;2023-04-30T12:32:41;14.90;99.90
35962;DHT22;22044;48.298;10.008;2023-04-30T12:35:28;14.80;99.90
35962;DHT22;22044;48.298;10.008;2023-04-30T12:38:16;15.00;99.90
35962;DHT22;22044;48.298;10.008;2023-04-30T12:41:03;14.90;99.90
35962;DHT22;22044;48.298;10.008;2023-04-30T12:43:49;15.00;99.90
35962;DHT22;22044;48.298;10.008;2023-04-30T12:46:34;14.90;99.90
35962;DHT22;22044;48.298;10.008;2023-04-30T12:49:24;14.70;99.90
35962;DHT22;22044;48.298;10.008;2023-04-30T12:52:11;14.60;99.90
35962;DHT22;22044;48.298;10.008;2023-04-30T12:58:10;15.10;99.90
35962;DHT22;22044;48.298;10.008;2023-04-30T13:00:57;14.80;99.90
35962;DHT22;22044;48.298;10.008;2023-04-30T13:03:43;15.10;99.90
35962;DHT22;22044;48.298;10.008;2023-04-30T13:06:28;15.40;99.90
35962;DHT22;22044;48.298;10.008;2023-04-30T13:09:16;15.50;99.90
35962;DHT22;22044;48.298;10.008;2023-04-30T13:12:02;15.50;99.90
35962;DHT22;22044;48.298;10.008;2023-04-30T13:14:49;15.30;99.90
35962;DHT22;22044;48.298;10.008;2023-04-30T13:17:35;15.30;99.90
35962;DHT22;22044;48.298;10.008;2023-04-30T13:20:20;15.10;99.90
35962;DHT22;22044;48.298;10.008;2023-04-30T13:23:08;15.30;99.90
35962;DHT22;22044;48.298;10.008;2023-04-30T13:25:54;15.30;99.90
35962;DHT22;22044;48.298;10.008;2023-04-30T13:28:40;15.20;99.90
35962;DHT22;22044;48.298;10.008;2023-04-30T13:31:27;15.30;99.90
35962;DHT22;22044;48.298;10.008;2023-04-30T13:34:13;15.70;99.90
35962;DHT22;22044;48.298;10.008;2023-04-30T13:36:59;15.50;99.90
35962;DHT22;22044;48.298;10.008;2023-04-30T13:39:45;15.60;99.90
35962;DHT22;22044;48.298;10.008;2023-04-30T13:42:30;15.40;99.90
35962;DHT22;22044;48.298;10.008;2023-04-30T13:45:16;15.60;99.90
35962;DHT22;22044;48.298;10.008;2023-04-30T13:48:04;15.50;99.90
35962;DHT22;22044;48.298;10.008;2023-04-30T13:50:50;15.50;99.90
35962;DHT22;22044;48.298;10.008;2023-04-30T13:53:36;15.30;99.90
35962;DHT22;22044;48.298;10.008;2023-04-30T13:56:23;15.20;99.90
35962;DHT22;22044;48.298;10.008;2023-04-30T13:59:09;15.30;99.90
35962;DHT22;22044;48.298;10.008;2023-04-30T14:01:55;15.50;99.90
35962;DHT22;22044;48.298;10.008;2023-04-30T14:04:42;15.60;99.90
35962;DHT22;22044;48.298;10.008;2023-04-30T14:07:29;15.60;99.90
35962;DHT22;22044;48.298;10.008;2023-04-30T14:10:14;15.60;99.90
35962;DHT22;22044;48.298;10.008;2023-04-30T14:13:00;15.50;99.90
35962;DHT22;22044;48.298;10.008;2023-04-30T14:15:45;15.40;99.90
35962;DHT22;22044;48.298;10.008;2023-04-30T14:18:31;15.50;99.90
35962;DHT22;22044;48.298;10.008;2023-04-30T14:21:18;15.20;99.90
35962;DHT22;22044;48.298;10.008;2023-04-30T14:24:04;15.30;99.90
35962;DHT22;22044;48.298;10.008;2023-04-30T14:26:50;15.50;99.90
35962;DHT22;22044;48.298;10.008;2023-04-30T14:29:36;15.50;99.90
35962;DHT22;22044;48.298;10.008;2023-04-30T14:32:24;15.60;99.90
35962;DHT22;22044;48.298;10.008;2023-04-30T14:35:09;15.60;99.90
35962;DHT22;22044;48.298;10.008;2023-04-30T14:37:57;15.80;99.90
35962;DHT22;22044;48.298;10.008;2023-04-30T14:40:42;15.80;99.90
35962;DHT22;22044;48.298;10.008;2023-04-30T14:43:28;15.60;99.90
35962;DHT22;22044;48.298;10.008;2023-04-30T14:46:13;15.70;99.90
35962;DHT22;22044;48.298;10.008;2023-04-30T14:48:59;15.50;99.90
35962;DHT22;22044;48.298;10.008;2023-04-30T14:51:45;15.50;99.90
35962;DHT22;22044;48.298;10.008;2023-04-30T14:54:32;15.50;99.90
35962;DHT22;22044;48.298;10.008;2023-04-30T14:57:18;15.50;99.90
35962;DHT22;22044;48.298;10.008;2023-04-30T15:00:04;15.70;99.90
35962;DHT22;22044;48.298;10.008;2023-04-30T15:02:50;15.60;99.90
35962;DHT22;22044;48.298;10.008;2023-04-30T15:05:36;15.30;99.90
35962;DHT22;22044;48.298;10.008;2023-04-30T15:08:21;15.40;99.90
35962;DHT22;22044;48.298;10.008;2023-04-30T15:11:08;15.30;99.90
35962;DHT22;22044;48.298;10.008;2023-04-30T15:13:56;15.30;99.90
35962;DHT22;22044;48.298;10.008;2023-04-30T15:16:41;15.10;99.90
35962;DHT22;22044;48.298;10.008;2023-04-30T15:19:27;15.20;99.90
35962;DHT22;22044;48.298;10.008;2023-04-30T15:22:15;15.50;99.90
35962;DHT22;22044;48.298;10.008;2023-04-30T15:25:00;15.40;99.90
35962;DHT22;22044;48.298;10.008;2023-04-30T15:27:48;15.40;99.90
35962;DHT22;22044;48.298;10.008;2023-04-30T15:30:34;15.70;99.90
35962;DHT22;22044;48.298;10.008;2023-04-30T15:33:20;15.80;99.90
35962;DHT22;22044;48.298;10.008;2023-04-30T15:36:09;15.60;99.90
35962;DHT22;22044;48.298;10.008;2023-04-30T15:38:55;15.30;99.90
35962;DHT22;22044;48.298;10.008;2023-04-30T15:41:41;15.20;99.90
35962;DHT22;22044;48.298;10.008;2023-04-30T15:44:28;15.10;99.90
35962;DHT22;22044;48.298;10.008;2023-04-30T15:47:14;15.20;99.90
35962;DHT22;22044;48.298;10.008;2023-04-30T15:50:00;15.40;99.90
35962;DHT22;22044;48.298;10.008;2023-04-30T15:52:46;15.30;99.90
35962;DHT22;22044;48.298;10.008;2023-04-30T15:55:31;15.30;99.90
35962;DHT22;22044;48.298;10.008;2023-04-30T15:58:17;15.30;99.90
35962;DHT22;22044;48.298;10.008;2023-04-30T16:01:04;15.40;99.90
35962;DHT22;22044;48.298;10.008;2023-04-30T16:03:50;15.50;99.90
35962;DHT22;22044;48.298;10.008;2023-04-30T16:06:37;15.50;99.90
35962;DHT22;22044;48.298;10.008;2023-04-30T16:09:23;15.40;99.90
35962;DHT22;22044;48.298;10.008;2023-04-30T16:12:10;15.10;99.90
35962;DHT22;22044;48.298;10.008;2023-04-30T16:14:55;15.10;99.90
35962;DHT22;22044;48.298;10.008;2023-04-30T16:17:42;15.00;99.90
35962;DHT22;22044;48.298;10.008;2023-04-30T16:20:28;15.00;99.90
35962;DHT22;22044;48.298;10.008;2023-04-30T16:23:13;15.00;99.90
35962;DHT22;22044;48.298;10.008;2023-04-30T16:26:00;14.90;99.90
35962;DHT22;22044;48.298;10.008;2023-04-30T16:28:46;15.00;99.90
35962;DHT22;22044;48.298;10.008;2023-04-30T16:31:33;15.10;99.90
35962;DHT22;22044;48.298;10.008;2023-04-30T16:34:20;14.90;99.90
35962;DHT22;22044;48.298;10.008;2023-04-30T16:37:06;14.80;99.90
35962;DHT22;22044;48.298;10.008;2023-04-30T16:39:51;14.90;99.90
35962;DHT22;22044;48.298;10.008;2023-04-30T16:42:37;14.70;99.90
35962;DHT22;22044;48.298;10.008;2023-04-30T16:45:22;14.60;99.90
35962;DHT22;22044;48.298;10.008;2023-04-30T16:48:08;14.60;99.90
35962;DHT22;22044;48.298;10.008;2023-04-30T16:50:55;14.50;99.90
35962;DHT22;22044;48.298;10.008;2023-04-30T16:53:41;14.60;99.90
35962;DHT22;22044;48.298;10.008;2023-04-30T16:56:27;14.60;99.90
35962;DHT22;22044;48.298;10.008;2023-04-30T16:59:12;14.60;99.90
35962;DHT22;22044;48.298;10.008;2023-04-30T17:01:58;14.50;99.90
35962;DHT22;22044;48.298;10.008;2023-04-30T17:04:44;14.60;99.90
35962;DHT22;22044;48.298;10.008;2023-04-30T17:07:31;14.60;99.90
35962;DHT22;22044;48.298;10.008;2023-04-30T17:10:18;14.40;99.90
35962;DHT22;22044;48.298;10.008;2023-04-30T17:13:04;14.50;99.90
35962;DHT22;22044;48.298;10.008;2023-04-30T17:15:51;14.50;99.90
35962;DHT22;22044;48.298;10.008;2023-04-30T17:18:39;14.50;99.90
35962;DHT22;22044;48.298;10.008;2023-04-30T17:21:25;14.50;99.90
35962;DHT22;22044;48.298;10.008;2023-04-30T17:24:14;14.30;99.90
35962;DHT22;22044;48.298;10.008;2023-04-30T17:26:59;14.30;99.90